Time;durP1;ratioP1;P1;durP2;ratioP2;P2;SDS_P1;SDS_P2;PMS_P1;PMS_P2;Temp;Humidity;BMP_temperature;BMP_pressure;BME280_temperature;BME280_humidity;BME280_pressure;Samples;Min_cycle;Max_cycle;Signal;HPM_P1;HPM_P2
2023/05/16 00:00:26;;;;;;;58.63;54.47;;;7.90;99.90;;;;;;4988882;28;20038;-74
2023/05/16 00:02:52;;;;;;;62.80;58.72;;;7.90;99.90;;;;;;4988504;28;20438;-74
2023/05/16 00:05:18;;;;;;;59.03;55.72;;;7.80;99.90;;;;;;4988400;28;20038;-74
2023/05/16 00:07:45;;;;;;;60.40;57.08;;;7.80;99.90;;;;;;4986379;28;20435;-74
2023/05/16 00:10:11;;;;;;;58.38;54.88;;;7.70;99.90;;;;;;4987177;28;20042;-75
2023/05/16 00:12:38;;;;;;;61.40;57.95;;;7.70;99.90;;;;;;5005768;28;20386;-74
2023/05/16 00:15:09;;;;;;;59.88;56.08;;;7.70;99.90;;;;;;4987400;28;20046;-74
2023/05/16 00:17:35;;;;;;;59.40;55.78;;;7.70;99.90;;;;;;4987726;28;20038;-74
2023/05/16 00:20:06;;;;;;;61.92;58.25;;;7.60;99.90;;;;;;4988559;28;20042;-74
2023/05/16 00:22:32;;;;;;;61.92;58.60;;;7.60;99.90;;;;;;4986328;28;20041;-74
2023/05/16 00:24:58;;;;;;;61.97;58.72;;;7.60;99.90;;;;;;4988543;28;20042;-74
2023/05/16 00:27:23;;;;;;;57.05;53.60;;;7.60;99.90;;;;;;4987356;28;20038;-74
2023/05/16 00:29:49;;;;;;;60.58;57.40;;;7.60;99.90;;;;;;4993589;28;20038;-74
2023/05/16 00:32:14;;;;;;;59.20;55.72;;;7.60;99.90;;;;;;4971235;28;20562;-74
2023/05/16 00:34:40;;;;;;;59.28;56.15;;;7.50;99.90;;;;;;4987976;28;20128;-74
2023/05/16 00:37:06;;;;;;;57.97;54.72;;;7.50;99.90;;;;;;4989210;28;20044;-74
2023/05/16 00:39:31;;;;;;;60.45;56.60;;;7.50;99.90;;;;;;4987866;28;20049;-74
2023/05/16 00:41:57;;;;;;;61.70;57.95;;;7.50;99.90;;;;;;4987685;28;20451;-74
2023/05/16 00:44:23;;;;;;;62.03;58.30;;;7.40;99.90;;;;;;4986653;28;20061;-74
2023/05/16 00:46:48;;;;;;;64.10;60.47;;;7.40;99.90;;;;;;4986921;28;20039;-74
2023/05/16 00:49:14;;;;;;;62.78;59.30;;;7.30;99.90;;;;;;4988401;28;20181;-73
2023/05/16 00:51:40;;;;;;;64.32;60.47;;;7.20;99.90;;;;;;4986817;28;20045;-73
2023/05/16 00:54:06;;;;;;;63.85;59.78;;;7.20;99.90;;;;;;4970693;28;20460;-73
2023/05/16 00:56:32;;;;;;;63.60;59.75;;;7.10;99.90;;;;;;4987134;28;20038;-73
2023/05/16 00:58:58;;;;;;;63.33;59.45;;;7.10;99.90;;;;;;4988066;28;20060;-73
2023/05/16 01:01:27;;;;;;;64.38;60.80;;;7.10;99.90;;;;;;4986468;28;20801;-75
2023/05/16 01:03:54;;;;;;;63.85;60.20;;;7.10;99.90;;;;;;4986569;28;20053;-73
2023/05/16 01:06:20;;;;;;;63.17;59.70;;;7.00;99.90;;;;;;4987740;28;20129;-73
2023/05/16 01:08:45;;;;;;;65.15;61.53;;;7.10;99.90;;;;;;4986965;28;20045;-73
2023/05/16 01:11:17;;;;;;;68.47;64.32;;;7.00;99.90;;;;;;4988099;28;20042;-72
2023/05/16 01:14:16;;;;;;;61.80;58.17;;;7.00;99.90;;;;;;4985764;28;20038;-73
2023/05/16 01:17:04;;;;;;;63.60;60.00;;;7.10;99.90;;;;;;4983018;28;20083;-73
2023/05/16 01:19:35;;;;;;;63.10;59.28;;;7.10;99.90;;;;;;4980497;28;20136;-75
2023/05/16 01:22:04;;;;;;;66.85;63.25;;;7.10;99.90;;;;;;4986853;28;20116;-75
2023/05/16 01:24:38;;;;;;;67.15;63.40;;;7.10;99.90;;;;;;4988124;28;20034;-73
2023/05/16 01:27:05;;;;;;;65.93;62.03;;;7.00;99.90;;;;;;4985044;28;20046;-72
2023/05/16 01:29:31;;;;;;;65.20;61.30;;;7.00;99.90;;;;;;4989423;28;20568;-74
2023/05/16 01:31:57;;;;;;;65.63;61.85;;;7.00;99.90;;;;;;4971496;28;20118;-73
2023/05/16 01:34:22;;;;;;;71.30;66.97;;;6.90;99.90;;;;;;4985522;28;20050;-73
2023/05/16 01:37:14;;;;;;;70.93;67.55;;;6.90;99.90;;;;;;4990043;28;20045;-73
2023/05/16 01:40:08;;;;;;;71.07;66.80;;;6.90;99.90;;;;;;4985270;28;20349;-73
2023/05/16 01:42:39;;;;;;;71.32;67.88;;;6.90;99.90;;;;;;4985683;28;20060;-73
2023/05/16 01:45:13;;;;;;;75.20;71.03;;;7.00;99.90;;;;;;4986177;28;20046;-73
2023/05/16 01:47:43;;;;;;;80.90;76.43;;;7.10;99.90;;;;;;4970069;28;20358;-73
2023/05/16 01:50:13;;;;;;;74.10;70.18;;;7.20;99.90;;;;;;4960489;28;20437;-74
2023/05/16 01:52:48;;;;;;;71.05;66.30;;;7.30;99.90;;;;;;4986871;28;20049;-73
2023/05/16 01:55:40;;;;;;;72.55;68.35;;;7.40;99.90;;;;;;4986749;28;20411;-73
2023/05/16 01:58:07;;;;;;;72.20;68.50;;;7.50;99.90;;;;;;4969647;28;20470;-74
2023/05/16 02:00:33;;;;;;;73.68;69.85;;;7.50;99.90;;;;;;4985363;28;20120;-73
2023/05/16 02:02:59;;;;;;;73.10;69.07;;;7.60;99.90;;;;;;4986718;28;20085;-74
2023/05/16 02:05:25;;;;;;;68.75;64.97;;;7.60;99.90;;;;;;4986176;28;20486;-74
2023/05/16 02:07:51;;;;;;;68.55;65.18;;;7.60;99.90;;;;;;4986941;28;20500;-73
2023/05/16 02:10:16;;;;;;;70.18;66.32;;;7.60;99.90;;;;;;4979011;28;20042;-74
2023/05/16 02:12:42;;;;;;;67.78;63.78;;;7.60;99.90;;;;;;4967338;28;20038;-74
2023/05/16 02:15:08;;;;;;;68.85;64.85;;;7.70;99.90;;;;;;4969754;28;20437;-74
2023/05/16 02:17:34;;;;;;;68.40;64.55;;;7.70;99.90;;;;;;5002856;28;20510;-74
2023/05/16 02:20:05;;;;;;;77.72;73.55;;;7.70;99.90;;;;;;4970201;28;20065;-74
2023/05/16 02:22:34;;;;;;;72.22;68.18;;;7.70;99.90;;;;;;4981557;28;20043;-74
2023/05/16 02:25:02;;;;;;;70.78;67.28;;;7.60;99.90;;;;;;4963003;28;20035;-74
2023/05/16 02:27:29;;;;;;;71.30;66.15;;;7.50;99.90;;;;;;4970404;28;20100;-74
2023/05/16 02:29:55;;;;;;;68.72;65.18;;;7.40;99.90;;;;;;4989786;28;20088;-74
2023/05/16 02:32:21;;;;;;;73.07;69.15;;;7.40;99.90;;;;;;4968945;28;20042;-74
2023/05/16 02:34:46;;;;;;;69.20;65.72;;;7.30;99.90;;;;;;4979768;28;20482;-74
2023/05/16 02:37:12;;;;;;;70.55;66.13;;;7.30;99.90;;;;;;4982464;28;20034;-74
2023/05/16 02:39:38;;;;;;;74.05;69.50;;;7.20;99.90;;;;;;4986472;28;20038;-73
2023/05/16 02:42:05;;;;;;;72.38;68.45;;;7.20;99.90;;;;;;4985638;28;20042;-74
2023/05/16 02:44:31;;;;;;;70.10;66.00;;;7.10;99.90;;;;;;4981675;28;20387;-73
2023/05/16 02:46:56;;;;;;;71.63;68.00;;;7.00;99.90;;;;;;4988496;28;20090;-74
2023/05/16 02:49:22;;;;;;;74.10;70.10;;;6.90;99.90;;;;;;4989711;28;20093;-73
2023/05/16 02:51:48;;;;;;;71.40;67.35;;;6.90;99.90;;;;;;4989947;28;20500;-74
2023/05/16 02:54:14;;;;;;;72.47;68.63;;;6.80;99.90;;;;;;4990889;28;20054;-73
2023/05/16 02:56:40;;;;;;;73.35;69.20;;;6.80;99.90;;;;;;4990266;28;20136;-73
2023/05/16 02:59:05;;;;;;;70.95;66.88;;;6.70;99.90;;;;;;4988356;28;20057;-73
2023/05/16 03:01:31;;;;;;;70.90;66.97;;;6.70;99.90;;;;;;4989888;28;20058;-73
2023/05/16 03:03:57;;;;;;;73.47;69.32;;;6.70;99.90;;;;;;4988845;28;20042;-73
2023/05/16 03:06:22;;;;;;;76.05;71.53;;;6.60;99.90;;;;;;4990314;28;20074;-74
2023/05/16 03:08:48;;;;;;;74.95;70.95;;;6.60;99.90;;;;;;4988943;28;20100;-73
2023/05/16 03:11:15;;;;;;;74.97;71.00;;;6.50;99.90;;;;;;4973798;28;20100;-73
2023/05/16 03:13:41;;;;;;;79.65;75.25;;;6.50;99.90;;;;;;4988010;28;20050;-73
2023/05/16 03:16:07;;;;;;;75.35;71.18;;;6.40;99.90;;;;;;4988919;28;20076;-74
2023/05/16 03:18:32;;;;;;;88.07;83.78;;;6.40;99.90;;;;;;4988352;28;20482;-74
2023/05/16 03:20:58;;;;;;;76.97;72.53;;;6.40;99.90;;;;;;4990590;28;20100;-73
2023/05/16 03:23:24;;;;;;;83.13;78.95;;;6.40;99.90;;;;;;4987944;28;20061;-73
2023/05/16 03:25:50;;;;;;;83.30;78.78;;;6.40;99.90;;;;;;4988764;28;20042;-73
2023/05/16 03:28:16;;;;;;;81.80;77.63;;;6.30;99.90;;;;;;4990520;28;20129;-74
2023/05/16 03:30:42;;;;;;;81.10;76.80;;;6.30;99.90;;;;;;4989447;28;20060;-73
2023/05/16 03:33:08;;;;;;;75.78;71.72;;;6.30;99.90;;;;;;4989717;28;20080;-74
2023/05/16 03:35:35;;;;;;;75.00;71.00;;;6.30;99.90;;;;;;4988901;28;20081;-73
2023/05/16 03:38:01;;;;;;;75.03;70.97;;;6.40;99.90;;;;;;4991390;28;20046;-73
2023/05/16 03:40:27;;;;;;;79.75;75.03;;;6.40;99.90;;;;;;4987329;28;20073;-73
2023/05/16 03:42:52;;;;;;;73.57;69.63;;;6.50;99.90;;;;;;4987551;28;20062;-73
2023/05/16 03:45:18;;;;;;;77.18;73.05;;;6.50;99.90;;;;;;4989446;28;20092;-73
2023/05/16 03:47:44;;;;;;;82.30;77.63;;;6.50;99.90;;;;;;4988497;28;20034;-74
2023/05/16 03:50:10;;;;;;;84.00;79.95;;;6.60;99.90;;;;;;4989084;28;20061;-73
2023/05/16 03:52:35;;;;;;;84.07;79.78;;;6.60;99.90;;;;;;4988137;28;20058;-74
2023/05/16 03:55:02;;;;;;;82.15;77.90;;;6.60;99.90;;;;;;4988636;28;20449;-74
2023/05/16 03:57:30;;;;;;;80.78;76.60;;;6.70;99.90;;;;;;4985587;28;20202;-73
2023/05/16 03:59:56;;;;;;;79.55;75.60;;;6.70;99.90;;;;;;4989295;28;20105;-73
2023/05/16 04:02:21;;;;;;;80.05;75.95;;;6.70;99.90;;;;;;4988215;28;20511;-73
2023/05/16 04:04:47;;;;;;;79.20;75.07;;;6.70;99.90;;;;;;4988182;28;20545;-74
2023/05/16 04:07:13;;;;;;;78.38;74.30;;;6.70;99.90;;;;;;4988224;28;20104;-74
2023/05/16 04:09:38;;;;;;;77.15;73.15;;;6.70;99.90;;;;;;4988559;28;20050;-74
2023/05/16 04:12:04;;;;;;;72.93;69.00;;;6.70;99.90;;;;;;4988626;28;20035;-74
2023/05/16 04:14:30;;;;;;;76.63;72.30;;;6.70;99.90;;;;;;4987618;28;20633;-73
2023/05/16 04:16:56;;;;;;;76.43;72.30;;;6.80;99.90;;;;;;4988489;28;20077;-73
2023/05/16 04:19:22;;;;;;;72.53;68.47;;;6.80;99.90;;;;;;4988545;28;20084;-73
2023/05/16 04:21:47;;;;;;;76.13;72.10;;;6.80;99.90;;;;;;5003623;28;20042;-73
2023/05/16 04:24:13;;;;;;;75.40;71.60;;;6.80;99.90;;;;;;4988040;28;20039;-73
2023/05/16 04:26:39;;;;;;;70.97;67.25;;;6.80;99.90;;;;;;4975157;28;20126;-73
2023/05/16 04:29:05;;;;;;;70.72;67.22;;;6.80;99.90;;;;;;4988184;28;20133;-73
2023/05/16 04:31:30;;;;;;;76.97;72.82;;;6.80;99.90;;;;;;4987567;28;20383;-73
2023/05/16 04:33:56;;;;;;;72.53;68.60;;;6.80;99.90;;;;;;4987850;28;20053;-73
2023/05/16 04:36:22;;;;;;;72.95;68.88;;;6.80;99.90;;;;;;4985558;28;20523;-73
2023/05/16 04:38:48;;;;;;;73.75;69.65;;;6.70;99.90;;;;;;4989026;28;20095;-74
2023/05/16 04:41:14;;;;;;;79.88;75.78;;;6.70;99.90;;;;;;4972181;28;20042;-73
2023/05/16 04:43:40;;;;;;;79.30;75.25;;;6.70;99.90;;;;;;4983841;28;20568;-74
2023/05/16 04:46:06;;;;;;;78.85;74.82;;;6.70;99.90;;;;;;4987689;28;20042;-74
2023/05/16 04:48:33;;;;;;;77.57;73.25;;;6.70;99.90;;;;;;4988265;28;20510;-74
2023/05/16 04:50:58;;;;;;;77.53;73.65;;;6.70;99.90;;;;;;4986832;28;20085;-73
2023/05/16 04:53:24;;;;;;;81.97;77.65;;;6.70;99.90;;;;;;4987655;28;20479;-73
2023/05/16 04:55:50;;;;;;;81.78;77.38;;;6.80;99.90;;;;;;4984924;28;20089;-74
2023/05/16 04:58:16;;;;;;;82.20;77.95;;;6.90;99.90;;;;;;4987964;28;20478;-73
2023/05/16 05:00:41;;;;;;;79.57;75.53;;;6.90;99.90;;;;;;4986721;28;20050;-73
2023/05/16 05:03:07;;;;;;;74.95;70.95;;;7.00;99.90;;;;;;4987548;28;20136;-74
2023/05/16 05:05:33;;;;;;;73.00;69.25;;;7.00;99.90;;;;;;4986420;28;20038;-73
2023/05/16 05:08:00;;;;;;;70.63;66.78;;;7.00;99.90;;;;;;4987236;28;20513;-74
2023/05/16 05:10:26;;;;;;;75.95;71.82;;;7.00;99.90;;;;;;4986212;28;20046;-74
2023/05/16 05:12:52;;;;;;;76.95;73.10;;;7.00;99.90;;;;;;4984744;28;20042;-74
2023/05/16 05:15:18;;;;;;;71.70;68.07;;;7.10;99.90;;;;;;4985675;28;20061;-74
2023/05/16 05:17:44;;;;;;;74.78;71.13;;;7.20;99.90;;;;;;4965256;28;20043;-73
2023/05/16 05:20:11;;;;;;;78.30;74.10;;;7.40;99.90;;;;;;4985865;28;20038;-74
2023/05/16 05:22:36;;;;;;;74.18;70.53;;;7.60;99.90;;;;;;4983842;28;20096;-74
2023/05/16 05:25:02;;;;;;;75.32;71.60;;;7.70;99.90;;;;;;4982028;28;20046;-74
2023/05/16 05:27:28;;;;;;;69.53;65.97;;;7.90;99.90;;;;;;4986240;28;20517;-74
2023/05/16 05:29:53;;;;;;;69.90;65.78;;;8.10;99.90;;;;;;4969719;28;20096;-74
2023/05/16 05:32:19;;;;;;;68.25;64.65;;;8.60;99.90;;;;;;4986726;28;20687;-74
2023/05/16 05:34:45;;;;;;;65.05;61.67;;;9.50;99.90;;;;;;4986647;28;20042;-74
2023/05/16 05:37:10;;;;;;;47.60;44.70;;;10.50;99.90;;;;;;4985486;28;20041;-74
2023/05/16 05:39:36;;;;;;;94.93;90.10;;;11.40;99.90;;;;;;4987352;28;20086;-74
2023/05/16 05:42:02;;;;;;;46.90;44.40;;;12.00;99.90;;;;;;4986539;28;20089;-74
2023/05/16 05:44:29;;;;;;;60.22;57.03;;;12.10;99.90;;;;;;4986795;28;20477;-75
2023/05/16 05:46:56;;;;;;;52.30;49.42;;;12.10;99.90;;;;;;4983760;28;20042;-74
2023/05/16 05:49:25;;;;;;;53.95;50.47;;;12.40;99.90;;;;;;4986072;28;20057;-75
2023/05/16 05:51:51;;;;;;;73.70;69.57;;;12.80;99.90;;;;;;4986741;28;20045;-74
2023/05/16 05:54:20;;;;;;;52.45;49.65;;;13.30;99.90;;;;;;4960339;28;20064;-75
2023/05/16 05:56:46;;;;;;;54.42;51.55;;;13.50;99.90;;;;;;4986538;28;20057;-74
2023/05/16 05:59:11;;;;;;;49.42;46.35;;;13.90;99.90;;;;;;4986099;28;20505;-74
2023/05/16 06:01:38;;;;;;;74.68;70.97;;;14.20;99.90;;;;;;4985873;28;20667;-75
2023/05/16 06:04:04;;;;;;;71.60;68.28;;;14.50;99.90;;;;;;4985097;28;20045;-75
2023/05/16 06:06:30;;;;;;;38.47;35.88;;;14.50;99.90;;;;;;4986380;28;20415;-75
2023/05/16 06:08:56;;;;;;;64.25;60.33;;;14.70;99.90;;;;;;4985097;28;20600;-75
2023/05/16 06:11:24;;;;;;;72.70;68.63;;;14.90;99.90;;;;;;4986607;28;20356;-74
2023/05/16 06:13:50;;;;;;;46.45;43.80;;;14.90;99.90;;;;;;4985827;28;20045;-73
2023/05/16 06:16:16;;;;;;;38.38;35.67;;;15.00;99.90;;;;;;4986570;28;20050;-75
2023/05/16 06:18:42;;;;;;;94.43;86.15;;;15.20;99.90;;;;;;4986530;28;20663;-75
2023/05/16 06:21:08;;;;;;;80.82;77.07;;;15.40;99.90;;;;;;4986387;28;20083;-74
2023/05/16 06:23:34;;;;;;;87.15;83.38;;;15.30;99.90;;;;;;4987786;28;20069;-74
2023/05/16 06:26:00;;;;;;;46.63;44.38;;;15.30;99.90;;;;;;4983019;28;20447;-74
2023/05/16 06:28:26;;;;;;;71.80;68.38;;;15.30;99.90;;;;;;4970023;28;20085;-74
2023/05/16 06:30:52;;;;;;;76.50;72.93;;;15.50;99.90;;;;;;4989944;28;20074;-74
2023/05/16 06:33:18;;;;;;;47.97;45.47;;;15.70;99.90;;;;;;4990376;28;20050;-74
2023/05/16 06:35:43;;;;;;;64.82;61.25;;;15.60;99.90;;;;;;4990018;28;20511;-74
2023/05/16 06:38:09;;;;;;;44.17;41.97;;;15.50;99.90;;;;;;4977102;28;20053;-74
2023/05/16 06:40:35;;;;;;;41.67;39.53;;;15.30;99.90;;;;;;4989882;28;20034;-75
2023/05/16 06:43:01;;;;;;;69.32;66.22;;;15.40;99.90;;;;;;4990140;28;20053;-74
2023/05/16 06:45:26;;;;;;;43.95;41.55;;;15.30;99.90;;;;;;4990181;28;20038;-75
2023/05/16 06:47:52;;;;;;;41.08;38.88;;;15.50;99.90;;;;;;4974053;28;20030;-74
2023/05/16 06:50:17;;;;;;;63.95;60.83;;;15.70;99.90;;;;;;4990237;28;20128;-75
2023/05/16 06:52:43;;;;;;;29.40;27.58;;;15.80;99.90;;;;;;4972743;28;20030;-74
2023/05/16 06:55:09;;;;;;;83.90;78.82;;;15.70;99.90;;;;;;4981713;28;20047;-75
2023/05/16 06:57:35;;;;;;;51.92;49.20;;;15.90;99.90;;;;;;4990050;28;20049;-75
2023/05/16 07:00:00;;;;;;;54.90;52.08;;;16.20;99.90;;;;;;4989418;28;20042;-75
2023/05/16 07:02:26;;;;;;;51.03;48.22;;;16.50;99.90;;;;;;4987476;28;20407;-75
2023/05/16 07:04:52;;;;;;;80.07;76.22;;;16.50;99.90;;;;;;4990231;28;20038;-74
2023/05/16 07:07:18;;;;;;;83.47;79.72;;;16.40;99.50;;;;;;4989923;28;20092;-75
2023/05/16 07:09:43;;;;;;;76.57;72.95;;;16.20;99.90;;;;;;4993549;28;20469;-75
2023/05/16 07:12:09;;;;;;;46.47;44.10;;;16.20;99.90;;;;;;4987467;28;20089;-75
2023/05/16 07:14:35;;;;;;;62.78;59.80;;;16.30;99.90;;;;;;4988192;28;20061;-75
2023/05/16 07:17:00;;;;;;;42.42;39.95;;;16.00;99.90;;;;;;4988877;28;20074;-75
2023/05/16 07:19:26;;;;;;;89.88;85.65;;;15.80;99.90;;;;;;4989841;28;20046;-74
2023/05/16 07:21:52;;;;;;;83.35;79.32;;;15.40;99.90;;;;;;4987595;28;20042;-74
2023/05/16 07:24:18;;;;;;;98.20;93.78;;;14.60;99.90;;;;;;4984247;28;20038;-74
2023/05/16 07:26:44;;;;;;;97.80;93.18;;;14.20;99.90;;;;;;4982621;28;20038;-75
2023/05/16 07:29:09;;;;;;;48.40;45.67;;;13.70;99.90;;;;;;4990384;28;20065;-74
2023/05/16 07:31:35;;;;;;;92.35;88.10;;;13.80;99.90;;;;;;4987167;28;20045;-74
2023/05/16 07:34:01;;;;;;;62.85;59.17;;;14.20;99.90;;;;;;4982955;28;20042;-75
2023/05/16 07:36:26;;;;;;;90.90;86.75;;;14.60;99.90;;;;;;4983233;28;20520;-75
2023/05/16 07:38:52;;;;;;;93.60;89.35;;;14.80;99.90;;;;;;4987239;28;20050;-75
2023/05/16 07:41:17;;;;;;;89.47;85.25;;;14.60;99.90;;;;;;4988753;28;20574;-74
2023/05/16 07:43:43;;;;;;;78.70;74.97;;;14.20;99.90;;;;;;4988804;28;20034;-75
2023/05/16 07:46:09;;;;;;;98.45;93.95;;;14.00;99.90;;;;;;4973123;28;20038;-75
2023/05/16 07:48:35;;;;;;;105.22;99.95;;;13.70;99.90;;;;;;4988481;28;20042;-74
2023/05/16 07:51:01;;;;;;;109.43;104.47;;;13.30;99.90;;;;;;4988663;28;20053;-74
2023/05/16 07:53:26;;;;;;;101.65;96.68;;;13.10;99.90;;;;;;4988543;28;20042;-75
2023/05/16 07:55:52;;;;;;;88.50;84.38;;;12.80;99.90;;;;;;4988620;28;20034;-75
2023/05/16 07:58:18;;;;;;;104.80;99.18;;;12.70;99.90;;;;;;4987810;28;20517;-76
2023/05/16 08:00:44;;;;;;;110.22;105.22;;;12.70;99.90;;;;;;4974354;28;20630;-75
2023/05/16 08:03:10;;;;;;;118.05;112.63;;;12.70;99.90;;;;;;4983397;28;20534;-75
2023/05/16 08:05:36;;;;;;;117.47;112.05;;;12.50;99.90;;;;;;4987595;28;20121;-75
2023/05/16 08:08:01;;;;;;;94.95;90.55;;;12.30;99.90;;;;;;4982570;28;20082;-76
2023/05/16 08:10:27;;;;;;;127.13;121.63;;;12.20;99.90;;;;;;4986682;28;20050;-75
2023/05/16 08:12:52;;;;;;;94.13;89.68;;;12.30;99.90;;;;;;4971139;28;20132;-76
2023/05/16 08:15:18;;;;;;;75.20;71.45;;;12.50;99.90;;;;;;4984023;28;20046;-76
2023/05/16 08:17:44;;;;;;;75.55;72.07;;;12.80;99.90;;;;;;4986768;28;20038;-75
2023/05/16 08:20:10;;;;;;;80.72;76.90;;;13.10;99.90;;;;;;4985503;28;20073;-75
2023/05/16 08:22:36;;;;;;;23.13;21.52;;;13.40;99.90;;;;;;4987768;28;20053;-76
2023/05/16 08:25:01;;;;;;;87.40;83.40;;;13.70;99.90;;;;;;4987177;28;20050;-75
2023/05/16 08:27:27;;;;;;;67.03;63.53;;;14.20;99.90;;;;;;4988381;28;20042;-76
2023/05/16 08:29:53;;;;;;;62.42;59.33;;;14.80;99.90;;;;;;4988287;28;20081;-76
2023/05/16 08:32:20;;;;;;;93.57;89.22;;;14.80;99.90;;;;;;4987876;28;20038;-76
2023/05/16 08:34:45;;;;;;;39.20;36.63;;;14.60;99.90;;;;;;4987309;28;20065;-76
2023/05/16 08:37:11;;;;;;;88.40;84.35;;;14.30;99.90;;;;;;4988326;28;20042;-75
2023/05/16 08:39:40;;;;;;;68.65;65.32;;;14.70;99.90;;;;;;4975077;28;20078;-73
2023/05/16 08:42:06;;;;;;;37.22;34.70;;;15.20;99.90;;;;;;4983503;28;20121;-73
2023/05/16 08:44:33;;;;;;;38.03;35.78;;;15.70;99.90;;;;;;4987940;28;20044;-74
2023/05/16 08:47:11;;;;;;;27.52;25.20;;;15.70;99.90;;;;;;4983520;28;20034;-74
2023/05/16 08:49:39;;;;;;;24.25;22.63;;;15.10;99.90;;;;;;4984772;28;20043;-74
2023/05/16 08:52:08;;;;;;;43.63;41.17;;;14.50;99.90;;;;;;4974402;28;20050;-74
2023/05/16 08:54:35;;;;;;;62.50;59.28;;;14.70;99.90;;;;;;4987027;28;20065;-76
2023/05/16 08:57:01;;;;;;;23.67;21.98;;;15.50;99.90;;;;;;4987103;28;20070;-75
2023/05/16 08:59:27;;;;;;;26.17;24.08;;;16.20;99.90;;;;;;4987373;28;20132;-73
2023/05/16 09:01:54;;;;;;;83.78;76.72;;;16.00;99.00;;;;;;4969840;28;20493;-74
2023/05/16 09:04:21;;;;;;;39.53;37.13;;;15.30;98.10;;;;;;4987266;28;20082;-73
2023/05/16 09:06:47;;;;;;;39.70;37.28;;;14.50;98.40;;;;;;4985180;28;20084;-73
2023/05/16 09:09:13;;;;;;;26.33;24.45;;;14.10;99.40;;;;;;4976237;28;20096;-74
2023/05/16 09:11:39;;;;;;;56.80;53.88;;;14.60;99.90;;;;;;4987125;28;20514;-74
2023/05/16 09:14:04;;;;;;;22.50;21.00;;;15.20;99.90;;;;;;4987106;28;20153;-73
2023/05/16 09:16:30;;;;;;;19.58;18.17;;;15.10;99.60;;;;;;4986117;28;20152;-73
2023/05/16 09:19:00;;;;;;;42.35;39.95;;;14.80;99.60;;;;;;4968882;28;20042;-74
2023/05/16 09:21:33;;;;;;;25.42;23.45;;;14.90;99.70;;;;;;4986230;28;20463;-73
2023/05/16 09:24:07;;;;;;;29.27;27.38;;;15.20;99.40;;;;;;4979433;28;20038;-74
2023/05/16 09:26:37;;;;;;;38.23;35.83;;;15.40;99.90;;;;;;4976817;28;20040;-73
2023/05/16 09:29:11;;;;;;;32.88;30.85;;;15.40;97.90;;;;;;4976633;28;20690;-74
2023/05/16 09:31:37;;;;;;;27.02;24.90;;;15.40;96.70;;;;;;4982901;28;20052;-73
2023/05/16 09:34:12;;;;;;;26.42;24.73;;;14.90;97.30;;;;;;4987344;28;20046;-72
2023/05/16 09:36:38;;;;;;;31.45;29.45;;;14.60;98.80;;;;;;4988272;28;20438;-73
2023/05/16 09:39:05;;;;;;;33.65;31.73;;;14.20;98.40;;;;;;4986587;28;20050;-73
2023/05/16 09:41:35;;;;;;;48.05;45.40;;;13.70;99.90;;;;;;4982474;28;20042;-75
2023/05/16 09:44:05;;;;;;;47.88;45.35;;;13.90;99.90;;;;;;4975587;28;20088;-75
2023/05/16 09:46:33;;;;;;;32.28;30.25;;;14.30;99.90;;;;;;4963985;28;20138;-75
2023/05/16 09:48:58;;;;;;;25.75;24.15;;;14.80;99.90;;;;;;4983292;28;20050;-73
2023/05/16 09:51:25;;;;;;;23.95;22.50;;;15.10;99.90;;;;;;4983022;28;20038;-73
2023/05/16 09:53:51;;;;;;;29.48;27.60;;;15.30;99.90;;;;;;4985920;28;20045;-73
2023/05/16 09:56:17;;;;;;;24.45;22.55;;;15.50;99.50;;;;;;4985890;28;20486;-74
2023/05/16 09:58:44;;;;;;;32.63;30.85;;;15.60;99.50;;;;;;4974724;28;20598;-74
2023/05/16 10:01:11;;;;;;;30.75;28.55;;;15.40;98.50;;;;;;4969208;28;20649;-73
2023/05/16 10:03:39;;;;;;;25.45;23.63;;;15.20;98.20;;;;;;4979895;28;20050;-74
2023/05/16 10:06:06;;;;;;;25.92;24.05;;;15.10;98.90;;;;;;4984076;28;20034;-74
2023/05/16 10:08:35;;;;;;;56.70;53.13;;;15.30;98.90;;;;;;4987485;28;20038;-73
2023/05/16 10:11:05;;;;;;;177.38;161.10;;;15.50;97.90;;;;;;4974559;28;20125;-74
2023/05/16 10:13:33;;;;;;;74.18;69.78;;;15.40;96.90;;;;;;4985897;28;20046;-74
2023/05/16 10:16:04;;;;;;;31.30;29.40;;;15.00;95.30;;;;;;4977187;28;20051;-73
2023/05/16 10:18:31;;;;;;;25.20;23.45;;;14.50;96.60;;;;;;4956838;28;20049;-74
2023/05/16 10:21:03;;;;;;;32.28;30.15;;;14.40;99.20;;;;;;4983241;28;20036;-73
2023/05/16 10:23:31;;;;;;;24.60;22.83;;;14.60;99.90;;;;;;4978279;28;20089;-74
2023/05/16 10:25:57;;;;;;;33.28;31.00;;;14.80;99.90;;;;;;4977330;28;20042;-73
2023/05/16 10:28:24;;;;;;;28.48;26.58;;;15.10;99.80;;;;;;4990033;28;20471;-74
2023/05/16 10:30:50;;;;;;;74.55;71.22;;;15.40;98.70;;;;;;4974933;28;20050;-74
2023/05/16 10:33:18;;;;;;;194.32;181.82;;;15.70;98.60;;;;;;4973560;28;20399;-73
2023/05/16 10:35:45;;;;;;;54.53;51.75;;;15.60;95.70;;;;;;4974436;28;20174;-73
2023/05/16 10:38:13;;;;;;;91.05;86.72;;;15.50;95.80;;;;;;4978697;28;20471;-75
2023/05/16 10:40:40;;;;;;;33.72;31.70;;;15.40;94.50;;;;;;4977636;28;20133;-74
2023/05/16 10:43:07;;;;;;;34.58;32.58;;;15.20;95.00;;;;;;4957561;28;20053;-73
2023/05/16 10:45:38;;;;;;;24.20;22.55;;;15.20;96.10;;;;;;4971399;28;20050;-75
2023/05/16 10:48:05;;;;;;;46.38;43.63;;;15.10;96.20;;;;;;4969841;28;20051;-75
2023/05/16 10:50:44;;;;;;;26.92;24.73;;;15.20;96.50;;;;;;4972614;28;20528;-74
2023/05/16 10:53:21;;;;;;;48.17;45.00;;;15.40;98.20;;;;;;4975442;28;20034;-75
2023/05/16 10:56:05;;;;;;;29.00;26.85;;;15.30;96.10;;;;;;4980445;28;20577;-75
2023/05/16 10:58:37;;;;;;;119.68;113.40;;;15.00;97.00;;;;;;4971422;28;20038;-74
2023/05/16 11:01:16;;;;;;;47.00;44.25;;;15.30;98.20;;;;;;4980898;28;20220;-74
2023/05/16 11:03:59;;;;;;;42.20;39.67;;;15.60;97.10;;;;;;4972595;28;20027;-74
2023/05/16 11:06:26;;;;;;;45.05;42.45;;;15.40;96.90;;;;;;4983040;28;20042;-74
2023/05/16 11:09:09;;;;;;;66.15;62.90;;;15.40;98.70;;;;;;4986010;28;20128;-75
2023/05/16 11:11:41;;;;;;;80.15;76.32;;;15.80;97.90;;;;;;4984175;28;20301;-74
2023/05/16 11:14:07;;;;;;;92.90;88.53;;;16.20;96.70;;;;;;4967469;28;20057;-74
2023/05/16 11:16:34;;;;;;;62.47;58.88;;;16.20;95.70;;;;;;4983805;28;20052;-74
2023/05/16 11:19:05;;;;;;;72.72;69.15;;;15.90;95.10;;;;;;4988594;28;20581;-74
2023/05/16 11:22:08;;;;;;;99.72;93.45;;;15.60;95.60;;;;;;4988409;28;20050;-74
2023/05/16 11:24:36;;;;;;;31.65;29.02;;;15.40;95.70;;;;;;4967086;28;20048;-75
2023/05/16 11:27:05;;;;;;;32.78;30.25;;;15.10;96.50;;;;;;4987820;28;20053;-75
2023/05/16 11:29:33;;;;;;;31.45;29.63;;;15.00;96.20;;;;;;4973136;28;20231;-74
2023/05/16 11:32:01;;;;;;;27.05;25.02;;;14.70;97.80;;;;;;4978014;28;20545;-75
2023/05/16 11:34:26;;;;;;;21.40;19.92;;;14.80;97.90;;;;;;4988997;28;20057;-75
2023/05/16 11:36:52;;;;;;;28.38;26.27;;;15.00;97.80;;;;;;4984127;28;20367;-74
2023/05/16 11:39:18;;;;;;;24.75;22.67;;;15.00;98.30;;;;;;4988253;28;20116;-75
2023/05/16 11:41:45;;;;;;;25.02;23.23;;;15.00;97.60;;;;;;4989631;28;20367;-75
2023/05/16 11:44:11;;;;;;;42.03;39.38;;;15.00;99.40;;;;;;4984748;28;20047;-75
2023/05/16 11:46:39;;;;;;;28.45;26.35;;;15.40;98.40;;;;;;4985346;28;20112;-75
2023/05/16 11:49:08;;;;;;;30.55;28.05;;;15.50;98.80;;;;;;4978979;28;20057;-75
2023/05/16 11:51:36;;;;;;;23.38;21.67;;;15.50;97.70;;;;;;4989502;28;20435;-75
2023/05/16 11:54:03;;;;;;;36.35;33.80;;;15.40;97.40;;;;;;4987964;28;20128;-75
2023/05/16 11:56:30;;;;;;;34.28;32.33;;;15.60;99.90;;;;;;4984584;28;20038;-75
2023/05/16 11:58:59;;;;;;;100.35;94.78;;;15.90;98.70;;;;;;4986090;28;20116;-74
2023/05/16 12:01:30;;;;;;;53.55;50.58;;;15.70;95.70;;;;;;4988055;28;20105;-75
2023/05/16 12:03:56;;;;;;;57.97;54.20;;;15.30;96.30;;;;;;4984447;28;20038;-75
2023/05/16 12:06:22;;;;;;;43.90;41.38;;;14.90;97.90;;;;;;4976931;28;20085;-74
2023/05/16 12:08:51;;;;;;;33.83;31.73;;;14.90;98.40;;;;;;4987709;28;20058;-74
2023/05/16 12:11:17;;;;;;;28.70;26.60;;;15.00;98.70;;;;;;4987282;28;20052;-74
2023/05/16 12:13:43;;;;;;;39.83;37.45;;;15.20;99.10;;;;;;4987440;28;20517;-74
2023/05/16 12:16:10;;;;;;;71.25;66.00;;;15.20;96.60;;;;;;4986690;28;20042;-74
2023/05/16 12:18:40;;;;;;;37.10;34.97;;;15.10;97.30;;;;;;4971801;28;20561;-74
2023/05/16 12:21:05;;;;;;;33.22;31.20;;;15.00;98.50;;;;;;4972646;28;20065;-75
2023/05/16 12:23:34;;;;;;;30.42;28.63;;;15.00;98.40;;;;;;4982378;28;20038;-75
2023/05/16 12:26:05;;;;;;;22.15;20.42;;;14.70;98.70;;;;;;4988406;28;20038;-74
2023/05/16 12:28:33;;;;;;;65.47;62.10;;;15.00;99.90;;;;;;4962630;28;20466;-74
2023/05/16 12:30:59;;;;;;;32.65;30.65;;;15.40;97.80;;;;;;4988352;28;20077;-75